Time;durP1;ratioP1;P1;durP2;ratioP2;P2;SDS_P1;SDS_P2;PMS_P1;PMS_P2;Temp;Humidity;BMP_temperature;BMP_pressure;BME280_temperature;BME280_humidity;BME280_pressure;Samples;Min_cycle;Max_cycle;Signal;HPM_P1;HPM_P2
2022/02/18 00:00:17;;;;;;;2.33;1.40;;;5.10;99.90;;;;;;7382553;19;20420;-78
2022/02/18 00:02:43;;;;;;;4.40;1.50;;;5.20;99.90;;;;;;7383240;19;20885;-80
2022/02/18 00:05:09;;;;;;;3.67;1.58;;;5.00;99.90;;;;;;7383260;19;20420;-79
2022/02/18 00:07:36;;;;;;;2.38;1.50;;;5.10;99.90;;;;;;7382881;19;20388;-79
2022/02/18 00:10:05;;;;;;;3.00;1.30;;;5.00;99.90;;;;;;7383336;19;20349;-79
2022/02/18 00:12:30;;;;;;;2.22;1.40;;;5.00;99.90;;;;;;7378577;19;20335;-78
2022/02/18 00:14:56;;;;;;;3.10;1.42;;;5.00;99.90;;;;;;7381767;19;20308;-80
2022/02/18 00:17:22;;;;;;;1.70;1.30;;;5.00;99.90;;;;;;7379561;19;20847;-79
2022/02/18 00:19:50;;;;;;;2.73;1.53;;;5.00;99.90;;;;;;7380492;19;20313;-78
2022/02/18 00:22:16;;;;;;;1.88;1.38;;;4.90;99.90;;;;;;7380019;19;20304;-79
2022/02/18 00:24:41;;;;;;;3.13;1.50;;;4.90;99.90;;;;;;7383780;19;20365;-81
2022/02/18 00:27:07;;;;;;;3.93;1.50;;;4.90;99.90;;;;;;7381473;19;20348;-78
2022/02/18 00:29:35;;;;;;;1.75;1.50;;;4.90;99.90;;;;;;7383403;19;20317;-78
2022/02/18 00:32:07;;;;;;;2.33;1.30;;;4.90;99.90;;;;;;7382324;19;20368;-79
2022/02/18 00:34:33;;;;;;;3.10;1.35;;;4.90;99.90;;;;;;7381231;19;20431;-78
2022/02/18 00:36:59;;;;;;;2.65;1.27;;;4.90;99.90;;;;;;7378883;19;20328;-78
2022/02/18 00:39:29;;;;;;;4.40;1.50;;;4.90;99.90;;;;;;7384188;19;20910;-79
2022/02/18 00:41:55;;;;;;;1.57;1.17;;;4.80;99.90;;;;;;7384985;19;20336;-79
2022/02/18 00:44:20;;;;;;;4.43;1.83;;;4.80;99.90;;;;;;7389356;19;20316;-78
2022/02/18 00:46:50;;;;;;;2.00;1.60;;;4.80;99.90;;;;;;7387709;19;20345;-79
2022/02/18 00:49:16;;;;;;;1.65;1.17;;;4.80;99.90;;;;;;7388497;19;20348;-79
2022/02/18 00:51:43;;;;;;;2.85;1.73;;;4.80;99.90;;;;;;7377420;19;20320;-78
2022/02/18 00:54:10;;;;;;;1.73;1.52;;;4.80;99.90;;;;;;7388500;19;20347;-78
2022/02/18 00:56:39;;;;;;;2.75;1.60;;;4.70;99.90;;;;;;7383966;19;21014;-78
2022/02/18 00:59:06;;;;;;;2.25;1.65;;;4.80;99.90;;;;;;7386099;19;20344;-78
2022/02/18 01:01:32;;;;;;;3.25;1.48;;;4.80;99.90;;;;;;7383450;19;20348;-79
2022/02/18 01:03:57;;;;;;;1.90;1.60;;;4.80;99.90;;;;;;7386942;19;20337;-78
2022/02/18 01:06:23;;;;;;;2.42;1.70;;;4.80;99.90;;;;;;7384036;19;20459;-78
2022/02/18 01:08:48;;;;;;;2.57;1.60;;;5.00;99.90;;;;;;7385320;19;20537;-78
2022/02/18 01:11:14;;;;;;;1.85;1.48;;;4.90;99.90;;;;;;7385917;19;20359;-79
2022/02/18 01:13:41;;;;;;;3.47;1.80;;;5.00;99.90;;;;;;7383439;19;20661;-78
2022/02/18 01:16:08;;;;;;;3.15;1.40;;;4.90;99.90;;;;;;7382040;19;20371;-78
2022/02/18 01:18:33;;;;;;;3.20;1.17;;;4.90;99.90;;;;;;7383643;19;20325;-79
2022/02/18 01:20:59;;;;;;;3.15;1.85;;;4.80;99.90;;;;;;7373980;19;20388;-79
2022/02/18 01:23:25;;;;;;;2.78;1.80;;;4.80;99.90;;;;;;7386735;19;20731;-78
2022/02/18 01:25:51;;;;;;;1.73;1.57;;;4.80;99.90;;;;;;7387118;19;20429;-78
2022/02/18 01:28:16;;;;;;;1.67;1.40;;;4.80;99.90;;;;;;7388611;19;20863;-79
2022/02/18 01:30:42;;;;;;;2.97;1.70;;;4.70;99.90;;;;;;7382284;19;20353;-78
2022/02/18 01:33:07;;;;;;;2.80;1.43;;;4.60;99.90;;;;;;7385738;19;20329;-79
2022/02/18 01:35:33;;;;;;;1.38;1.27;;;4.50;99.90;;;;;;7354136;19;20347;-78
2022/02/18 01:37:59;;;;;;;3.60;1.60;;;4.50;99.90;;;;;;7381899;19;20332;-79
2022/02/18 01:40:24;;;;;;;2.33;1.45;;;4.40;99.90;;;;;;7364609;19;20348;-78
2022/02/18 01:42:50;;;;;;;1.50;1.27;;;4.40;99.90;;;;;;7384856;19;20333;-78
2022/02/18 01:45:16;;;;;;;3.33;1.77;;;4.30;99.90;;;;;;7389021;19;20332;-78
2022/02/18 01:47:42;;;;;;;3.05;1.38;;;4.30;99.90;;;;;;7384772;19;20328;-79
2022/02/18 01:50:08;;;;;;;1.87;1.40;;;4.30;99.90;;;;;;7383163;19;20320;-79
2022/02/18 01:52:44;;;;;;;2.13;1.60;;;4.30;99.90;;;;;;7363573;19;20312;-78
2022/02/18 01:55:12;;;;;;;2.40;1.60;;;4.20;99.90;;;;;;7383976;19;20355;-79
2022/02/18 01:57:46;;;;;;;2.83;1.50;;;4.20;99.90;;;;;;7379735;19;20808;-79
2022/02/18 02:00:26;;;;;;;3.67;1.48;;;4.10;99.90;;;;;;7340769;19;20337;-78
2022/02/18 02:02:52;;;;;;;1.25;1.15;;;4.10;99.90;;;;;;7374977;19;20404;-78
2022/02/18 02:05:18;;;;;;;4.53;1.48;;;4.10;99.90;;;;;;7370272;19;20336;-78
2022/02/18 02:07:44;;;;;;;2.03;1.40;;;4.10;99.90;;;;;;7382103;19;20300;-78
2022/02/18 02:10:19;;;;;;;3.03;1.50;;;4.10;99.90;;;;;;7365523;19;20765;-78
2022/02/18 02:12:50;;;;;;;2.67;1.50;;;4.10;99.90;;;;;;7379808;19;20788;-79
2022/02/18 02:15:26;;;;;;;3.40;1.47;;;4.10;99.90;;;;;;7377314;19;20779;-78
2022/02/18 02:17:51;;;;;;;2.85;1.60;;;4.10;99.90;;;;;;7374766;19;20395;-78
2022/02/18 02:20:17;;;;;;;3.93;1.57;;;4.10;99.90;;;;;;7380150;19;20755;-78
2022/02/18 02:22:43;;;;;;;2.50;1.40;;;4.00;99.90;;;;;;7358844;19;20376;-78
2022/02/18 02:25:08;;;;;;;1.77;1.27;;;4.00;99.90;;;;;;7380475;19;20726;-78
2022/02/18 02:27:34;;;;;;;2.30;1.30;;;4.00;99.90;;;;;;7379034;19;20340;-78
2022/02/18 02:30:08;;;;;;;2.40;1.52;;;4.00;99.90;;;;;;7382842;19;20332;-78
2022/02/18 02:32:34;;;;;;;1.80;1.30;;;3.90;99.90;;;;;;7385137;19;20313;-78
2022/02/18 02:35:08;;;;;;;3.20;1.20;;;3.90;99.90;;;;;;7355931;19;20661;-78
2022/02/18 02:37:35;;;;;;;2.10;1.42;;;3.90;99.90;;;;;;7378525;19;20332;-78
2022/02/18 02:40:00;;;;;;;1.73;1.23;;;3.90;99.90;;;;;;7378770;19;20316;-79
2022/02/18 02:42:33;;;;;;;3.50;1.35;;;3.90;99.90;;;;;;7377365;19;20400;-78
2022/02/18 02:45:06;;;;;;;1.50;1.30;;;3.90;99.90;;;;;;7250058;19;2004245;-78
2022/02/18 02:47:31;;;;;;;2.63;1.52;;;3.90;99.90;;;;;;7379564;19;20475;-79
2022/02/18 02:50:07;;;;;;;1.65;1.38;;;3.90;99.90;;;;;;7382561;19;20862;-78
2022/02/18 02:52:32;;;;;;;1.67;1.40;;;3.80;99.90;;;;;;7385600;19;20329;-79
2022/02/18 02:55:10;;;;;;;1.30;1.20;;;3.90;99.90;;;;;;7356720;19;20392;-78
2022/02/18 02:57:37;;;;;;;1.27;1.10;;;3.90;99.90;;;;;;7380568;19;20332;-78
2022/02/18 03:00:04;;;;;;;6.00;1.60;;;3.90;99.90;;;;;;7381377;19;20339;-79
2022/02/18 03:02:30;;;;;;;4.57;1.50;;;3.80;99.90;;;;;;7353969;19;20316;-78
2022/02/18 03:05:01;;;;;;;3.88;1.50;;;3.90;99.90;;;;;;7368004;19;20379;-78
2022/02/18 03:07:26;;;;;;;2.05;1.27;;;3.70;99.90;;;;;;7384307;19;20361;-78
2022/02/18 03:10:04;;;;;;;1.33;1.23;;;3.70;99.90;;;;;;7379934;19;20341;-78
2022/02/18 03:12:29;;;;;;;3.15;1.20;;;3.70;99.90;;;;;;7383500;19;21109;-78
2022/02/18 03:15:00;;;;;;;4.05;1.67;;;3.70;99.90;;;;;;7387622;19;20316;-78
2022/02/18 03:17:30;;;;;;;2.58;1.48;;;3.60;99.90;;;;;;7382004;19;20841;-78
2022/02/18 03:20:16;;;;;;;3.50;1.73;;;3.40;99.90;;;;;;7275990;19;2004515;-78
2022/02/18 03:22:43;;;;;;;3.00;1.60;;;3.50;99.90;;;;;;7379022;19;20341;-79
2022/02/18 03:25:09;;;;;;;3.35;1.40;;;3.40;99.90;;;;;;7379291;19;20876;-78
2022/02/18 03:27:37;;;;;;;6.20;1.38;;;3.30;99.90;;;;;;7353791;19;20336;-79
2022/02/18 03:30:07;;;;;;;2.00;1.37;;;3.60;99.90;;;;;;7344761;19;20348;-78
2022/02/18 03:32:36;;;;;;;1.03;1.00;;;3.50;99.90;;;;;;7376742;19;20324;-77
2022/02/18 03:35:02;;;;;;;2.28;1.33;;;3.50;99.90;;;;;;7385622;19;20337;-78
2022/02/18 03:37:34;;;;;;;2.80;1.50;;;3.50;99.90;;;;;;7375923;19;20345;-76
2022/02/18 03:40:09;;;;;;;1.20;1.10;;;3.50;99.90;;;;;;7333316;19;21151;-79
2022/02/18 03:42:36;;;;;;;3.17;1.40;;;3.50;99.90;;;;;;7380560;19;20408;-78
2022/02/18 03:45:02;;;;;;;1.33;1.20;;;3.50;99.90;;;;;;7380922;19;21307;-77
2022/02/18 03:47:49;;;;;;;3.58;1.38;;;3.40;99.90;;;;;;7377398;19;20333;-77
2022/02/18 03:50:17;;;;;;;1.70;1.33;;;3.40;99.90;;;;;;7381384;19;20450;-78
2022/02/18 03:52:44;;;;;;;1.63;1.20;;;3.40;99.90;;;;;;7380249;19;20820;-78
2022/02/18 03:55:09;;;;;;;1.67;1.30;;;3.40;99.90;;;;;;7378467;19;20324;-79
2022/02/18 03:57:40;;;;;;;2.22;1.30;;;3.40;99.90;;;;;;7376178;19;21027;-78
2022/02/18 04:00:10;;;;;;;2.50;1.08;;;3.40;99.90;;;;;;7380067;19;20732;-78
2022/02/18 04:02:44;;;;;;;2.00;1.30;;;3.40;99.90;;;;;;7377116;19;20332;-78
2022/02/18 04:05:19;;;;;;;2.63;1.30;;;3.40;99.90;;;;;;7381728;19;20328;-78
2022/02/18 04:07:55;;;;;;;1.23;1.10;;;3.40;99.90;;;;;;7374361;19;20408;-78
2022/02/18 04:10:21;;;;;;;1.58;1.30;;;3.50;99.90;;;;;;7379340;19;20474;-78
2022/02/18 04:12:47;;;;;;;1.50;1.30;;;3.40;99.90;;;;;;7366826;19;20320;-78
2022/02/18 04:15:19;;;;;;;3.00;1.30;;;3.30;99.90;;;;;;7378925;19;20360;-77
2022/02/18 04:17:45;;;;;;;3.03;1.70;;;3.40;99.90;;;;;;7374477;19;20332;-78
2022/02/18 04:20:21;;;;;;;2.53;1.48;;;3.40;99.90;;;;;;7379636;19;20337;-78
2022/02/18 04:22:53;;;;;;;1.30;1.20;;;3.40;99.90;;;;;;7377212;19;21087;-79
2022/02/18 04:25:25;;;;;;;2.60;1.33;;;3.40;99.90;;;;;;7380802;19;20316;-79
2022/02/18 04:27:55;;;;;;;5.60;1.38;;;3.30;99.90;;;;;;7374859;19;20320;-79
2022/02/18 04:30:21;;;;;;;1.02;1.02;;;3.30;99.90;;;;;;7377749;19;20336;-78
2022/02/18 04:32:47;;;;;;;2.63;1.38;;;3.30;99.90;;;;;;7378189;19;20335;-79
2022/02/18 04:35:13;;;;;;;3.35;1.70;;;3.40;99.90;;;;;;7378929;19;20412;-78
2022/02/18 04:37:39;;;;;;;2.50;1.33;;;3.40;99.90;;;;;;7373455;19;20327;-78
2022/02/18 04:40:07;;;;;;;2.05;1.38;;;3.30;99.90;;;;;;7379171;19;20343;-78
2022/02/18 04:42:33;;;;;;;2.92;1.25;;;3.20;99.90;;;;;;7375969;19;20341;-77
2022/02/18 04:44:58;;;;;;;2.88;1.60;;;3.20;99.90;;;;;;7366465;19;20844;-79
2022/02/18 04:47:25;;;;;;;3.17;1.50;;;3.20;99.90;;;;;;7372748;19;20313;-78
2022/02/18 04:49:57;;;;;;;1.58;1.40;;;3.10;99.90;;;;;;7377472;19;20371;-79
2022/02/18 04:52:22;;;;;;;2.33;1.40;;;3.20;99.90;;;;;;7376005;19;20352;-78
2022/02/18 04:54:48;;;;;;;1.73;1.40;;;3.20;99.90;;;;;;7380989;19;20307;-79
2022/02/18 04:57:14;;;;;;;2.42;1.70;;;3.20;99.90;;;;;;7373228;19;21501;-79
2022/02/18 04:59:39;;;;;;;3.57;1.40;;;3.10;99.90;;;;;;7382237;19;20443;-79
2022/02/18 05:02:05;;;;;;;2.15;1.55;;;3.00;99.90;;;;;;7377059;19;20410;-78
2022/02/18 05:04:30;;;;;;;3.20;2.53;;;3.00;99.90;;;;;;7375221;19;20373;-77
2022/02/18 05:06:56;;;;;;;2.03;1.67;;;3.10;99.90;;;;;;7376569;19;20874;-78
2022/02/18 05:09:22;;;;;;;2.67;1.60;;;3.10;99.90;;;;;;7375986;19;20872;-78
2022/02/18 05:11:49;;;;;;;3.63;2.50;;;3.20;99.90;;;;;;7376165;19;20320;-78
2022/02/18 05:14:15;;;;;;;3.80;2.58;;;3.20;99.90;;;;;;7376963;19;20743;-78
2022/02/18 05:16:41;;;;;;;1.90;1.42;;;3.20;99.90;;;;;;7375550;19;20408;-78
2022/02/18 05:19:09;;;;;;;2.13;1.58;;;3.20;99.90;;;;;;7375127;19;20412;-78
2022/02/18 05:21:38;;;;;;;2.17;1.55;;;3.20;99.90;;;;;;7378673;19;20754;-78
2022/02/18 05:24:05;;;;;;;2.33;1.60;;;3.30;99.90;;;;;;7374708;19;20349;-77
2022/02/18 05:26:30;;;;;;;1.52;1.42;;;3.40;99.90;;;;;;7381052;19;20340;-78
2022/02/18 05:28:56;;;;;;;1.93;1.60;;;3.40;99.90;;;;;;7381767;19;20316;-78
2022/02/18 05:31:22;;;;;;;2.20;1.70;;;3.50;99.90;;;;;;7386990;19;20344;-77
2022/02/18 05:33:47;;;;;;;1.90;1.70;;;3.40;99.90;;;;;;7380849;19;20308;-77
2022/02/18 05:36:17;;;;;;;2.20;1.33;;;3.40;99.90;;;;;;7381543;19;20958;-78
2022/02/18 05:38:43;;;;;;;3.23;1.70;;;3.50;99.90;;;;;;7366844;19;20313;-78
2022/02/18 05:41:15;;;;;;;1.42;1.33;;;3.50;99.90;;;;;;7389655;19;20340;-78
2022/02/18 05:43:40;;;;;;;1.92;1.50;;;3.50;99.90;;;;;;7383874;19;20325;-78
2022/02/18 05:46:06;;;;;;;1.45;1.30;;;3.60;99.90;;;;;;7391444;19;20357;-80
2022/02/18 05:48:32;;;;;;;2.60;1.50;;;3.60;99.90;;;;;;7390779;19;20317;-79
2022/02/18 05:50:58;;;;;;;1.80;1.45;;;3.60;99.90;;;;;;7392760;19;20656;-78
2022/02/18 05:53:23;;;;;;;1.98;1.52;;;3.70;99.90;;;;;;7390374;19;20415;-78
2022/02/18 05:55:51;;;;;;;1.75;1.50;;;3.70;99.90;;;;;;7391620;19;20332;-79
2022/02/18 05:58:18;;;;;;;2.10;1.60;;;3.70;99.90;;;;;;7388004;19;20316;-78
2022/02/18 06:00:44;;;;;;;5.35;1.70;;;3.80;99.90;;;;;;7389141;19;20370;-78
2022/02/18 06:03:09;;;;;;;1.40;1.30;;;3.80;99.90;;;;;;7386155;19;20351;-78
2022/02/18 06:05:35;;;;;;;2.70;1.80;;;3.80;99.90;;;;;;7386354;19;20428;-78
2022/02/18 06:08:00;;;;;;;4.60;2.10;;;3.80;99.90;;;;;;7383404;19;20312;-78
2022/02/18 06:10:26;;;;;;;4.25;2.45;;;3.80;99.90;;;;;;7381190;19;21066;-77
2022/02/18 06:12:52;;;;;;;1.85;1.60;;;3.80;99.90;;;;;;7377455;19;20351;-78
2022/02/18 06:15:18;;;;;;;2.00;1.45;;;4.00;99.90;;;;;;7382076;19;20911;-78
2022/02/18 06:17:44;;;;;;;2.53;1.30;;;3.80;99.90;;;;;;7376430;19;20321;-78
2022/02/18 06:20:10;;;;;;;2.23;1.33;;;3.70;99.90;;;;;;7381806;19;20332;-77
2022/02/18 06:22:36;;;;;;;3.10;1.75;;;3.80;99.90;;;;;;7382042;19;20832;-78
2022/02/18 06:25:05;;;;;;;1.65;1.40;;;3.80;99.90;;;;;;7380762;19;20683;-78
2022/02/18 06:27:31;;;;;;;2.53;1.48;;;3.70;99.90;;;;;;7379342;19;20362;-78
2022/02/18 06:29:57;;;;;;;1.40;1.30;;;3.70;99.90;;;;;;7382547;19;20340;-76
2022/02/18 06:32:23;;;;;;;7.03;1.63;;;3.70;99.90;;;;;;7379928;19;20327;-76
2022/02/18 06:34:48;;;;;;;2.67;1.73;;;3.70;99.90;;;;;;7382014;19;21065;-77
2022/02/18 06:37:14;;;;;;;4.63;2.50;;;3.70;99.90;;;;;;7378292;19;20391;-77
2022/02/18 06:39:40;;;;;;;2.10;1.90;;;3.70;99.90;;;;;;7380585;19;20894;-77
2022/02/18 06:42:09;;;;;;;1.40;1.30;;;3.70;99.90;;;;;;7383849;19;20321;-78
2022/02/18 06:44:35;;;;;;;3.40;1.92;;;3.70;99.90;;;;;;7385116;19;20318;-77
2022/02/18 06:47:00;;;;;;;1.97;1.40;;;3.80;99.90;;;;;;7378877;19;21521;-77
2022/02/18 06:49:26;;;;;;;1.60;1.50;;;3.80;99.90;;;;;;7383773;19;20345;-79
2022/02/18 06:51:55;;;;;;;5.10;1.90;;;3.80;99.90;;;;;;7383421;19;20313;-78
2022/02/18 06:54:27;;;;;;;3.80;1.80;;;3.80;99.90;;;;;;7380839;19;20877;-76
2022/02/18 06:56:53;;;;;;;2.73;1.60;;;3.80;99.90;;;;;;7375974;19;21286;-78
2022/02/18 06:59:19;;;;;;;2.45;1.58;;;3.90;99.90;;;;;;7377603;19;20337;-78
2022/02/18 07:01:47;;;;;;;5.97;1.80;;;3.90;99.90;;;;;;7379515;19;20313;-78
2022/02/18 07:04:13;;;;;;;2.05;1.50;;;4.00;99.90;;;;;;7379382;19;20371;-78
2022/02/18 07:06:39;;;;;;;3.35;1.88;;;4.10;99.90;;;;;;7382079;19;20321;-78
2022/02/18 07:09:07;;;;;;;2.20;1.40;;;4.10;99.90;;;;;;7374586;19;20681;-77
2022/02/18 07:11:32;;;;;;;2.07;1.87;;;4.20;99.90;;;;;;7380179;19;20337;-78
2022/02/18 07:13:58;;;;;;;3.37;1.47;;;4.20;99.90;;;;;;7379454;19;20347;-77
2022/02/18 07:16:23;;;;;;;1.60;1.50;;;4.40;99.90;;;;;;7378468;19;20427;-77
2022/02/18 07:18:49;;;;;;;2.30;1.60;;;4.30;99.90;;;;;;7377172;19;20398;-78
2022/02/18 07:21:16;;;;;;;3.35;1.90;;;4.40;99.90;;;;;;7367566;19;20353;-77
2022/02/18 07:23:42;;;;;;;2.33;1.67;;;4.50;99.90;;;;;;7379685;19;20327;-79
2022/02/18 07:26:07;;;;;;;1.80;1.50;;;4.50;99.90;;;;;;7380759;19;20316;-78
2022/02/18 07:28:34;;;;;;;3.85;1.77;;;4.50;99.90;;;;;;7378176;19;21172;-77
2022/02/18 07:30:59;;;;;;;1.83;1.67;;;4.60;99.90;;;;;;7376561;19;20332;-78
2022/02/18 07:33:25;;;;;;;2.83;1.63;;;4.70;99.90;;;;;;7380712;19;20424;-77
2022/02/18 07:35:52;;;;;;;3.13;2.70;;;4.80;99.90;;;;;;7380935;19;20328;-78
2022/02/18 07:38:18;;;;;;;2.80;1.95;;;4.90;99.90;;;;;;7377798;19;20336;-79
2022/02/18 07:40:43;;;;;;;4.27;1.60;;;5.00;99.90;;;;;;7384075;19;20412;-77
2022/02/18 07:43:09;;;;;;;1.90;1.50;;;4.90;99.90;;;;;;7383830;19;20337;-75
2022/02/18 07:45:35;;;;;;;1.63;1.50;;;5.00;99.90;;;;;;7385099;19;20339;-75
2022/02/18 07:48:00;;;;;;;2.10;1.70;;;5.00;99.90;;;;;;7389041;19;21025;-76
2022/02/18 07:50:26;;;;;;;1.83;1.60;;;5.10;99.90;;;;;;7389798;19;20324;-77
2022/02/18 07:52:52;;;;;;;6.30;2.00;;;5.10;99.90;;;;;;7390763;19;20864;-78
2022/02/18 07:55:17;;;;;;;2.15;1.60;;;5.10;99.90;;;;;;7389465;19;20328;-77
2022/02/18 07:57:43;;;;;;;1.67;1.50;;;5.30;99.90;;;;;;7387267;19;20391;-78
2022/02/18 08:00:09;;;;;;;1.93;1.60;;;5.30;99.90;;;;;;7392161;19;20329;-77
2022/02/18 08:02:40;;;;;;;2.30;1.60;;;5.40;99.90;;;;;;7392445;19;20357;-78
2022/02/18 08:05:06;;;;;;;3.88;1.80;;;5.60;99.90;;;;;;7390551;19;20324;-77
2022/02/18 08:07:31;;;;;;;2.47;1.80;;;5.60;99.90;;;;;;7391665;19;20781;-78
2022/02/18 08:09:57;;;;;;;4.17;2.00;;;5.70;99.90;;;;;;7392351;19;20819;-78
2022/02/18 08:12:23;;;;;;;4.25;1.85;;;5.80;99.90;;;;;;7390949;19;20424;-76
2022/02/18 08:14:50;;;;;;;1.50;1.40;;;5.80;99.90;;;;;;7388706;19;20316;-77
2022/02/18 08:17:15;;;;;;;4.87;1.80;;;5.90;99.90;;;;;;7388762;19;20343;-78
2022/02/18 08:19:41;;;;;;;1.48;1.38;;;5.90;99.90;;;;;;7389134;19;20329;-77
2022/02/18 08:22:07;;;;;;;1.27;1.20;;;6.00;99.90;;;;;;7392909;19;20321;-78
2022/02/18 08:24:33;;;;;;;2.17;1.57;;;6.00;99.90;;;;;;7389994;19;20308;-76
2022/02/18 08:27:00;;;;;;;1.70;1.35;;;6.10;99.90;;;;;;7387308;19;20331;-78
2022/02/18 08:29:25;;;;;;;3.15;1.63;;;6.10;99.90;;;;;;7388225;19;20332;-78
2022/02/18 08:31:52;;;;;;;1.73;1.58;;;6.20;99.90;;;;;;7390309;19;20329;-78
2022/02/18 08:34:17;;;;;;;2.53;1.50;;;6.30;99.90;;;;;;7389858;19;20357;-78
2022/02/18 08:36:43;;;;;;;6.45;1.70;;;6.40;99.90;;;;;;7388761;19;20344;-77
2022/02/18 08:39:09;;;;;;;2.70;1.60;;;6.40;99.90;;;;;;7387695;19;20929;-78
2022/02/18 08:41:35;;;;;;;2.67;1.73;;;6.50;99.90;;;;;;7389607;19;20360;-78
2022/02/18 08:44:01;;;;;;;2.30;1.80;;;6.60;99.90;;;;;;7388548;19;20332;-77
2022/02/18 08:46:27;;;;;;;1.42;1.33;;;6.70;99.90;;;;;;7388088;19;20329;-77
2022/02/18 08:48:53;;;;;;;2.03;1.70;;;6.80;99.90;;;;;;7388545;19;20658;-77
2022/02/18 08:51:19;;;;;;;1.60;1.45;;;6.80;99.90;;;;;;7388038;19;20329;-78
2022/02/18 08:53:44;;;;;;;2.00;1.60;;;6.80;99.90;;;;;;7390198;19;20348;-78
2022/02/18 08:56:10;;;;;;;3.70;1.63;;;6.80;99.90;;;;;;7383661;19;20667;-78
2022/02/18 08:58:35;;;;;;;3.83;1.60;;;6.90;99.90;;;;;;7383351;19;20740;-78
2022/02/18 09:01:01;;;;;;;2.60;1.80;;;6.90;99.90;;;;;;7392744;19;20317;-77
2022/02/18 09:03:26;;;;;;;2.93;1.83;;;6.90;99.90;;;;;;7389800;19;20316;-77
2022/02/18 09:05:52;;;;;;;4.25;1.60;;;6.90;99.90;;;;;;7394942;19;20360;-79
2022/02/18 09:08:21;;;;;;;3.33;1.73;;;7.00;99.90;;;;;;7393410;19;20316;-78
2022/02/18 09:10:49;;;;;;;2.03;1.65;;;7.10;99.90;;;;;;7393538;19;20328;-77
2022/02/18 09:13:15;;;;;;;2.47;1.40;;;7.20;99.90;;;;;;7392316;19;20329;-78
2022/02/18 09:15:41;;;;;;;3.28;1.83;;;7.20;99.90;;;;;;7395464;19;20313;-77
2022/02/18 09:18:20;;;;;;;2.15;1.70;;;7.30;99.90;;;;;;7289670;19;2004480;-77
2022/02/18 09:20:47;;;;;;;5.07;1.90;;;7.50;99.90;;;;;;7395176;19;20826;-78
2022/02/18 09:23:13;;;;;;;2.28;1.77;;;7.60;99.90;;;;;;7394402;19;20354;-78
2022/02/18 09:25:40;;;;;;;3.90;1.70;;;7.70;99.90;;;;;;7394845;19;20309;-77
2022/02/18 09:28:06;;;;;;;3.72;1.70;;;7.80;99.90;;;;;;7393606;19;20371;-79
2022/02/18 09:30:34;;;;;;;3.67;1.98;;;7.80;99.90;;;;;;7394599;19;20324;-78
2022/02/18 09:32:59;;;;;;;2.07;1.37;;;7.90;99.90;;;;;;7396382;19;20316;-77
2022/02/18 09:35:25;;;;;;;2.22;1.63;;;7.90;99.90;;;;;;7395542;19;20685;-78
2022/02/18 09:37:51;;;;;;;2.17;1.50;;;8.00;99.90;;;;;;7390302;19;20340;-78
2022/02/18 09:40:17;;;;;;;2.45;1.67;;;7.90;99.90;;;;;;7396474;19;20411;-77
2022/02/18 09:42:43;;;;;;;2.67;2.23;;;8.00;99.90;;;;;;7394666;19;20319;-78
2022/02/18 09:45:10;;;;;;;1.58;1.45;;;8.00;99.90;;;;;;7394633;19;20357;-79
2022/02/18 09:47:36;;;;;;;1.95;1.60;;;8.20;99.90;;;;;;7393833;19;20376;-77
2022/02/18 09:50:02;;;;;;;2.78;1.65;;;8.10;99.90;;;;;;7393841;19;21143;-78
2022/02/18 09:52:27;;;;;;;2.40;1.57;;;8.20;99.90;;;;;;7394084;19;20292;-78
2022/02/18 09:54:53;;;;;;;3.87;1.93;;;8.30;99.90;;;;;;7393290;19;20332;-77
2022/02/18 09:57:20;;;;;;;5.53;1.80;;;8.40;99.90;;;;;;7389874;19;20328;-78
2022/02/18 09:59:46;;;;;;;2.17;1.67;;;8.40;99.90;;;;;;7396696;19;20312;-78
2022/02/18 10:02:12;;;;;;;1.70;1.60;;;8.50;99.90;;;;;;7396101;19;20416;-78
2022/02/18 10:04:37;;;;;;;3.60;1.80;;;8.60;99.90;;;;;;7396219;19;20768;-78
2022/02/18 10:07:03;;;;;;;2.38;2.13;;;8.60;99.90;;;;;;7394833;19;20345;-77
2022/02/18 10:09:39;;;;;;;4.47;2.03;;;8.70;99.90;;;;;;7390735;19;20341;-77
2022/02/18 10:12:05;;;;;;;5.30;1.80;;;8.80;99.90;;;;;;7386213;19;20320;-77
2022/02/18 10:15:00;;;;;;;3.37;1.77;;;8.90;99.90;;;;;;7392528;19;20317;-79
2022/02/18 10:17:37;;;;;;;3.25;1.92;;;9.00;99.90;;;;;;7285068;19;2004584;-78
2022/02/18 10:20:15;;;;;;;2.67;1.80;;;9.00;99.90;;;;;;7388199;19;20380;-77
2022/02/18 10:22:56;;;;;;;3.17;1.83;;;9.00;99.90;;;;;;7388117;19;20352;-77
2022/02/18 10:25:27;;;;;;;3.97;2.08;;;9.00;99.90;;;;;;7389122;19;20324;-78
2022/02/18 10:27:53;;;;;;;3.70;2.05;;;9.10;99.90;;;;;;7380372;19;20312;-80
2022/02/18 10:30:22;;;;;;;5.97;2.28;;;9.20;99.90;;;;;;7390796;19;20876;-77
2022/02/18 10:32:49;;;;;;;3.13;1.80;;;9.30;99.90;;;;;;7376481;19;20363;-78
2022/02/18 10:35:17;;;;;;;5.85;2.03;;;9.30;99.90;;;;;;7387680;19;20325;-77
2022/02/18 10:37:47;;;;;;;4.38;1.67;;;9.30;99.90;;;;;;7387794;19;20324;-77
2022/02/18 10:40:16;;;;;;;3.17;1.85;;;9.60;99.90;;;;;;7393638;19;20332;-79
2022/02/18 10:42:43;;;;;;;2.00;1.80;;;9.50;99.90;;;;;;7391290;19;21193;-80
2022/02/18 10:45:13;;;;;;;2.45;1.67;;;9.50;99.90;;;;;;7392754;19;20329;-80
2022/02/18 10:47:39;;;;;;;10.20;1.90;;;9.40;99.90;;;;;;7398366;19;20373;-82
2022/02/18 10:50:21;;;;;;;2.75;1.70;;;9.20;99.90;;;;;;7398366;19;20882;-81
2022/02/18 10:53:13;;;;;;;4.93;1.60;;;9.10;99.90;;;;;;7375790;19;20317;-81
2022/02/18 10:55:58;;;;;;;3.33;2.20;;;9.10;99.90;;;;;;7293221;19;2004636;-78
2022/02/18 10:58:37;;;;;;;2.58;1.90;;;9.10;99.90;;;;;;7390746;19;20345;-78
2022/02/18 11:01:07;;;;;;;4.20;2.00;;;9.00;99.90;;;;;;7389220;19;20301;-77
2022/02/18 11:03:34;;;;;;;3.90;2.37;;;9.00;99.90;;;;;;7391021;19;20320;-77
2022/02/18 11:06:14;;;;;;;3.60;1.80;;;9.00;99.90;;;;;;7393471;19;20335;-78
2022/02/18 11:08:48;;;;;;;2.60;1.73;;;8.80;99.90;;;;;;7288256;19;2004311;-78
2022/02/18 11:11:13;;;;;;;3.42;2.08;;;8.80;99.90;;;;;;7290518;19;2004662;-78
2022/02/18 11:13:40;;;;;;;2.60;1.85;;;9.00;99.90;;;;;;7389062;19;20802;-78
2022/02/18 11:16:09;;;;;;;1.50;1.40;;;9.00;99.90;;;;;;7391727;19;21093;-76
2022/02/18 11:18:39;;;;;;;3.45;1.90;;;8.90;99.90;;;;;;7391262;19;20321;-78
2022/02/18 11:21:06;;;;;;;3.30;1.55;;;9.00;99.90;;;;;;7392273;19;20333;-76
2022/02/18 11:23:32;;;;;;;2.47;1.65;;;9.00;99.90;;;;;;7385686;19;20340;-77
2022/02/18 11:25:58;;;;;;;3.35;1.80;;;9.00;99.90;;;;;;7392624;19;20330;-77
2022/02/18 11:28:25;;;;;;;2.78;1.52;;;8.90;99.90;;;;;;7388617;19;20863;-77
2022/02/18 11:30:51;;;;;;;4.32;1.75;;;9.10;99.90;;;;;;7390475;19;20344;-77
2022/02/18 11:33:19;;;;;;;5.50;2.50;;;9.00;99.90;;;;;;7390393;19;20324;-78
2022/02/18 11:36:04;;;;;;;1.70;1.42;;;9.10;99.90;;;;;;7393614;19;20335;-77
2022/02/18 11:38:45;;;;;;;2.70;1.98;;;9.00;99.90;;;;;;7393412;19;20324;-77
2022/02/18 11:41:26;;;;;;;3.00;1.98;;;8.90;99.90;;;;;;7289105;19;2004542;-76
2022/02/18 11:43:52;;;;;;;5.03;1.75;;;8.90;99.90;;;;;;7289120;19;2004447;-78
2022/02/18 11:46:22;;;;;;;3.45;1.75;;;8.70;99.90;;;;;;7389160;19;20309;-78
2022/02/18 11:48:53;;;;;;;1.90;1.23;;;8.70;99.90;;;;;;7385911;19;20326;-77
2022/02/18 11:51:21;;;;;;;2.35;1.50;;;8.40;99.90;;;;;;7385848;19;20348;-78
2022/02/18 11:53:49;;;;;;;3.33;1.50;;;8.20;99.90;;;;;;7380962;19;20357;-77
2022/02/18 11:56:14;;;;;;;1.73;1.50;;;8.10;99.90;;;;;;7380178;19;20360;-79
2022/02/18 11:59:02;;;;;;;1.55;1.00;;;8.00;99.90;;;;;;7379869;19;20357;-76
2022/02/18 12:01:48;;;;;;;1.03;1.00;;;8.10;99.90;;;;;;7380597;19;20359;-76
2022/02/18 12:04:18;;;;;;;1.00;1.00;;;7.90;99.90;;;;;;7281350;19;2004389;-76
2022/02/18 12:07:22;;;;;;;1.45;1.10;;;7.90;99.90;;;;;;7380410;19;20340;-78
2022/02/18 12:09:50;;;;;;;3.10;1.27;;;7.70;99.90;;;;;;7280349;19;2004293;-75
2022/02/18 12:12:28;;;;;;;2.20;1.20;;;7.70;99.90;;;;;;7382761;19;20370;-78
2022/02/18 12:14:55;;;;;;;1.42;0.93;;;7.60;99.90;;;;;;7386108;19;20400;-77
2022/02/18 12:17:20;;;;;;;1.13;1.10;;;7.60;99.90;;;;;;7369478;19;20344;-77
2022/02/18 12:19:47;;;;;;;1.30;1.00;;;7.60;99.90;;;;;;7382663;19;20312;-77
2022/02/18 12:22:12;;;;;;;1.30;1.20;;;7.50;99.90;;;;;;7381221;19;20368;-76
2022/02/18 12:24:47;;;;;;;1.53;1.43;;;7.50;99.90;;;;;;7382852;19;21241;-78
2022/02/18 12:27:32;;;;;;;2.30;1.65;;;7.50;99.90;;;;;;7379246;19;20337;-77
2022/02/18 12:30:02;;;;;;;3.95;2.22;;;7.50;99.90;;;;;;7281754;19;2004615;-77
2022/02/18 12:32:28;;;;;;;2.42;2.17;;;7.50;99.90;;;;;;7383387;19;20337;-77
2022/02/18 12:34:59;;;;;;;1.75;1.65;;;7.60;99.90;;;;;;7384341;19;20920;-79
2022/02/18 12:37:24;;;;;;;2.35;1.70;;;7.60;99.90;;;;;;7384355;19;20343;-78
2022/02/18 12:39:54;;;;;;;1.85;1.67;;;7.60;99.90;;;;;;7384785;19;24975;-77
2022/02/18 12:42:36;;;;;;;1.58;1.10;;;7.70;99.90;;;;;;7382456;19;21009;-77
2022/02/18 12:45:02;;;;;;;0.80;0.80;;;7.70;99.90;;;;;;7382860;19;20350;-78
2022/02/18 12:47:32;;;;;;;1.40;1.00;;;7.70;99.90;;;;;;7379434;19;20341;-78
2022/02/18 12:50:00;;;;;;;1.20;1.10;;;7.70;99.90;;;;;;7391309;19;20312;-78
2022/02/18 12:52:27;;;;;;;0.90;0.90;;;7.70;99.90;;;;;;7390855;19;20364;-78
2022/02/18 12:54:57;;;;;;;0.80;0.80;;;7.70;99.90;;;;;;7391798;19;20355;-77
2022/02/18 12:57:33;;;;;;;0.93;0.93;;;7.80;99.90;;;;;;7387416;19;20328;-78
2022/02/18 12:59:59;;;;;;;0.80;0.80;;;7.80;99.90;;;;;;7389884;19;20347;-78